Veendam — PHEO — position and weather

sailwx.info

Track history (hours):
 
Tides and Currents Weather Stations Pressure Air Temp Water Temp Dewpoint Dewpoint Depression Visibility Wind Speed Wind Dir Waves Ship Positions

Veendam (Netherlands)

Last reported at 2018-Jul-22 07:00 UTC. Time now 2018-Jul-22 06:58 UTC.
Position N 43°45' W 068°40'.

Type: Ship. MMSI: 246506000.

Date/timePositionNaut miles runAvg speedWind from/ knotsBaromVisibWave heightAir tempDewpointWater temp
2018-Jul-22 07:00N 43°45' W 068°40'816.1
2018-Jul-22 06:30N 43°39' W 068°48'1020.1
2018-Jul-22 06:00N 43°30' W 068°54'4822.9 120 / 91021.010.8 18.014.621.0
2018-Jul-22 05:59N 43°34' W 068°57'815.9
2018-Jul-22 05:30N 43°28' W 069°04'816.0
2018-Jul-22 05:00N 43°23' W 069°12'816.1
2018-Jul-22 04:30N 43°18' W 069°21'816.0
2018-Jul-22 04:00N 43°13' W 069°29'4221.6
2018-Jul-22 04:00N 43°12' W 069°24'1019.8 130 / 201016.010.8 18.014.621.0
2018-Jul-22 03:30N 43°08' W 069°36'612.4
2018-Jul-22 03:00N 43°04' W 069°42'612.2
2018-Jul-22 02:30N 42°60' W 069°48'612.6
2018-Jul-22 02:00N 42°55' W 069°55'612.5
2018-Jul-22 01:29N 42°51' W 070°01'612.3
2018-Jul-22 01:00N 42°47' W 070°07'5412.7
2018-Jul-22 01:00N 42°42' W 070°06'612.0 100 / 141020.010.8 19.015.720.0
2018-Jul-22 00:30N 42°43' W 070°14'612.8
2018-Jul-22 00:00N 42°39' W 070°21'612.5
2018-Jul-21 23:30N 42°36' W 070°28'612.4
2018-Jul-21 23:00N 42°32' W 070°34'611.7
2018-Jul-21 22:31N 42°27' W 070°39'611.9
2018-Jul-21 22:00N 42°26' W 070°47'611.3
2018-Jul-21 21:30N 42°23' W 070°53'510.9
2018-Jul-21 21:00N 42°20' W 070°59'2 4.0
2018-Jul-21 20:30N 42°21' W 071°02'0 0.1
2018-Jul-21 15:49N 42°21' W 071°02'0 0.0
2018-Jul-21 14:52N 42°21' W 071°02'0 0.0
2018-Jul-21 14:19N 42°21' W 071°02'0 0.0
2018-Jul-21 13:58N 42°21' W 071°02'0 0.0
2018-Jul-21 13:28N 42°21' W 071°02'0 0.0
2018-Jul-21 12:58N 42°21' W 071°02'0 0.0
2018-Jul-21 12:28N 42°21' W 071°02'0 0.0
2018-Jul-21 11:55N 42°21' W 071°02'0 0.0
2018-Jul-21 11:28N 42°21' W 071°02'0 0.0
2018-Jul-21 10:55N 42°21' W 071°02'0 0.0
2018-Jul-21 10:28N 42°21' W 071°02'0 0.5
2018-Jul-21 10:00N 42°21' W 071°02'3 6.5
2018-Jul-21 09:31N 42°20' W 070°57'510.3
2018-Jul-21 09:00N 42°24' W 070°52'612.1
2018-Jul-21 08:30N 42°27' W 070°46'815.2
2018-Jul-21 08:00N 42°31' W 070°37'816.3
2018-Jul-21 07:30N 42°36' W 070°28'816.2
2018-Jul-21 07:00N 42°41' W 070°19'816.6
2018-Jul-21 06:30N 42°46' W 070°10'816.2
2018-Jul-21 06:00N 42°51' W 070°02'816.2
2018-Jul-21 05:30N 42°56' W 069°53'816.0
2018-Jul-21 05:00N 43°02' W 069°45'3213.1
2018-Jul-21 05:00N 43°00' W 069°42'816.8 180 / 131021.010.8 19.515.321.0
2018-Jul-21 04:30N 43°07' W 069°37'715.0
2018-Jul-21 04:00N 43°11' W 069°27'7435.2
2018-Jul-21 04:00N 43°12' W 069°18'3 7.1 180 / 111021.010.8 19.515.321.0
2018-Jul-21 03:30N 43°15' W 069°19'815.7
2018-Jul-21 03:00N 43°20' W 069°10'815.5
2018-Jul-21 02:30N 43°25' W 069°02'815.7
2018-Jul-21 02:00N 43°30' W 068°53'815.8
2018-Jul-21 01:30N 43°35' W 068°45'815.9
2018-Jul-21 01:00N 43°40' W 068°37'816.4
2018-Jul-21 00:30N 43°46' W 068°29'816.5
2018-Jul-21 00:00N 43°52' W 068°22'5289.9
2018-Jul-21 00:00N 43°48' W 068°24'1326.7 220 / 121021.510.8 20.018.415.0
2018-Jul-20 23:30N 43°59' W 068°14'816.1
2018-Jul-20 23:00N 44°06' W 068°08'815.8
2018-Jul-20 22:30N 44°14' W 068°08'511.0
2018-Jul-20 22:00N 44°19' W 068°08'46 3.2
2018-Jul-20 07:26N 43°53' W 067°14'6819.8
2018-Jul-20 04:00N 43°12' W 066°00'6817.0 010 / 251018.010.8 14.010.210.0
2018-Jul-20 00:00N 43°42' W 064°36'123 6.8 250 / 81016.0 5.4 19.015.717.0
2018-Jul-19 06:00N 44°42' W 062°06'5618.8 350 / 61009.5 0.0 15.015.015.0
2018-Jul-19 03:00N 45°06' W 060°54'7318.2 270 / 151009.0 0.1 15.015.015.0
2018-Jul-18 23:00N 45°54' W 059°36'76 4.2 200 / 301008.0 0.1 15.015.014.0
2018-Jul-18 05:00N 46°48' W 060°54'1717.2 190 / 241008.0 5.4 20.018.419.0
2018-Jul-18 04:00N 46°36' W 061°12'44 1.9 180 / 251009.0 5.4 19.017.419.0
2018-Jul-17 05:00N 47°06' W 062°00'6611.0 180 / 61015.0 0.1 15.015.017.0
2018-Jul-16 23:00N 48°12' W 061°54'33315.1 150 / 201012.0 0.0 17.015.316.0
2018-Jul-16 01:00N 47°30' W 070°06'3115.7 280 / 81014.010.8 22.018.921.0
2018-Jul-15 23:00N 47°06' W 070°36'2716.4 190 / 61013.010.8 24.021.022.0
2018-Jul-15 21:21N 46°50' W 071°08'3 8.3
2018-Jul-15 21:00N 46°49' W 071°12'0 0.1
2018-Jul-15 20:24N 46°49' W 071°12'0 0.0
2018-Jul-15 20:00N 46°49' W 071°12'0 0.0
2018-Jul-15 19:27N 46°49' W 071°12'0 0.0
2018-Jul-15 18:57N 46°49' W 071°12'0 0.0
2018-Jul-15 18:24N 46°49' W 071°12'0 0.0
2018-Jul-15 17:54N 46°49' W 071°12'0 0.0
2018-Jul-15 17:27N 46°49' W 071°12'0 0.0
2018-Jul-15 16:57N 46°49' W 071°12'0 0.0
2018-Jul-15 16:15N 46°49' W 071°12'0 0.0
2018-Jul-15 15:51N 46°49' W 071°12'0 0.0
2018-Jul-15 14:12N 46°49' W 071°12'0 0.0
2018-Jul-15 13:57N 46°49' W 071°12'0 0.0
2018-Jul-15 13:21N 46°49' W 071°12'0 0.0
2018-Jul-15 12:21N 46°49' W 071°12'0 0.0
2018-Jul-15 11:51N 46°49' W 071°12'0 0.0
2018-Jul-15 11:30N 46°49' W 071°12'0 0.0
2018-Jul-15 10:54N 46°49' W 071°12'0 0.0
2018-Jul-15 10:15N 46°49' W 071°12'0 0.0
2018-Jul-15 09:48N 46°49' W 071°12'8610.1
2018-Jul-15 01:17N 46°06' W 072°59'310.9
2018-Jul-15 01:00N 46°04' W 073°03'47858.1
2018-Jul-15 01:00N 46°00' W 073°00'713.6 150 / 101013.010.8 24.021.024.0
2018-Jul-15 00:30N 46°03' W 073°08'4 8.3
2018-Jul-15 00:00N 45°59' W 073°11'4 8.8
2018-Jul-14 23:30N 45°55' W 073°13'5 9.1
2018-Jul-14 23:00N 45°51' W 073°16'5 9.2
2018-Jul-14 22:30N 45°48' W 073°20'4 8.9
2018-Jul-14 22:00N 45°44' W 073°25'610.7
2018-Jul-14 21:25N 45°39' W 073°29'2 0.1
2018-Jul-14 09:00N 45°37' W 073°30'5 9.4
2018-Jul-14 08:29N 45°41' W 073°27'5 9.9
2018-Jul-14 08:00N 45°45' W 073°23'5 9.6
2018-Jul-14 07:30N 45°49' W 073°19'510.0
2018-Jul-14 07:00N 45°53' W 073°15'510.3
2018-Jul-14 06:30N 45°58' W 073°12'510.1
2018-Jul-14 05:59N 46°03' W 073°09'510.2
2018-Jul-14 05:29N 46°04' W 073°02'8810.8
2018-Jul-13 21:22N 46°48' W 071°12'1 1.7
2018-Jul-13 21:00N 46°49' W 071°12'  
Track history (hours):
 
Tides and Currents Weather Stations Pressure Air Temp Water Temp Dewpoint Dewpoint Depression Visibility Wind Speed Wind Dir Waves Ship Positions

Veendam (Netherlands)

Last reported at 2018-Jul-22 07:00 UTC. Time now 2018-Jul-22 06:58 UTC.
Position N 43°45' W 068°40'.

Type: Ship. MMSI: 246506000.

Date/timePositionNaut miles runAvg speedWind from/ knotsBaromVisibWave heightAir tempDewpointWater temp
2018-Jul-22 07:00N 43°45' W 068°40'816.1
2018-Jul-22 06:30N 43°39' W 068°48'1020.1
2018-Jul-22 06:00N 43°30' W 068°54'4822.9 120 / 91021.010.8 18.014.621.0
2018-Jul-22 05:59N 43°34' W 068°57'815.9
2018-Jul-22 05:30N 43°28' W 069°04'816.0
2018-Jul-22 05:00N 43°23' W 069°12'816.1
2018-Jul-22 04:30N 43°18' W 069°21'816.0
2018-Jul-22 04:00N 43°13' W 069°29'4221.6
2018-Jul-22 04:00N 43°12' W 069°24'1019.8 130 / 201016.010.8 18.014.621.0
2018-Jul-22 03:30N 43°08' W 069°36'612.4
2018-Jul-22 03:00N 43°04' W 069°42'612.2
2018-Jul-22 02:30N 42°60' W 069°48'612.6
2018-Jul-22 02:00N 42°55' W 069°55'612.5
2018-Jul-22 01:29N 42°51' W 070°01'612.3
2018-Jul-22 01:00N 42°47' W 070°07'5412.7
2018-Jul-22 01:00N 42°42' W 070°06'612.0 100 / 141020.010.8 19.015.720.0
2018-Jul-22 00:30N 42°43' W 070°14'612.8
2018-Jul-22 00:00N 42°39' W 070°21'612.5
2018-Jul-21 23:30N 42°36' W 070°28'612.4
2018-Jul-21 23:00N 42°32' W 070°34'611.7
2018-Jul-21 22:31N 42°27' W 070°39'611.9
2018-Jul-21 22:00N 42°26' W 070°47'611.3
2018-Jul-21 21:30N 42°23' W 070°53'510.9
2018-Jul-21 21:00N 42°20' W 070°59'2 4.0
2018-Jul-21 20:30N 42°21' W 071°02'0 0.1
2018-Jul-21 15:49N 42°21' W 071°02'0 0.0
2018-Jul-21 14:52N 42°21' W 071°02'0 0.0
2018-Jul-21 14:19N 42°21' W 071°02'0 0.0
2018-Jul-21 13:58N 42°21' W 071°02'0 0.0
2018-Jul-21 13:28N 42°21' W 071°02'0 0.0
2018-Jul-21 12:58N 42°21' W 071°02'0 0.0
2018-Jul-21 12:28N 42°21' W 071°02'0 0.0
2018-Jul-21 11:55N 42°21' W 071°02'0 0.0
2018-Jul-21 11:28N 42°21' W 071°02'0 0.0
2018-Jul-21 10:55N 42°21' W 071°02'0 0.0
2018-Jul-21 10:28N 42°21' W 071°02'0 0.5
2018-Jul-21 10:00N 42°21' W 071°02'3 6.5
2018-Jul-21 09:31N 42°20' W 070°57'510.3
2018-Jul-21 09:00N 42°24' W 070°52'612.1
2018-Jul-21 08:30N 42°27' W 070°46'815.2
2018-Jul-21 08:00N 42°31' W 070°37'816.3
2018-Jul-21 07:30N 42°36' W 070°28'816.2
2018-Jul-21 07:00N 42°41' W 070°19'816.6
2018-Jul-21 06:30N 42°46' W 070°10'816.2
2018-Jul-21 06:00N 42°51' W 070°02'816.2
2018-Jul-21 05:30N 42°56' W 069°53'816.0
2018-Jul-21 05:00N 43°02' W 069°45'3213.1
2018-Jul-21 05:00N 43°00' W 069°42'816.8 180 / 131021.010.8 19.515.321.0
2018-Jul-21 04:30N 43°07' W 069°37'715.0
2018-Jul-21 04:00N 43°11' W 069°27'7435.2
2018-Jul-21 04:00N 43°12' W 069°18'3 7.1 180 / 111021.010.8 19.515.321.0
2018-Jul-21 03:30N 43°15' W 069°19'815.7
2018-Jul-21 03:00N 43°20' W 069°10'815.5
2018-Jul-21 02:30N 43°25' W 069°02'815.7
2018-Jul-21 02:00N 43°30' W 068°53'815.8
2018-Jul-21 01:30N 43°35' W 068°45'815.9
2018-Jul-21 01:00N 43°40' W 068°37'816.4
2018-Jul-21 00:30N 43°46' W 068°29'816.5
2018-Jul-21 00:00N 43°52' W 068°22'5289.9
2018-Jul-21 00:00N 43°48' W 068°24'1326.7 220 / 121021.510.8 20.018.415.0
2018-Jul-20 23:30N 43°59' W 068°14'816.1
2018-Jul-20 23:00N 44°06' W 068°08'815.8
2018-Jul-20 22:30N 44°14' W 068°08'511.0
2018-Jul-20 22:00N 44°19' W 068°08'46 3.2
2018-Jul-20 07:26N 43°53' W 067°14'6819.8
2018-Jul-20 04:00N 43°12' W 066°00'6817.0 010 / 251018.010.8 14.010.210.0
2018-Jul-20 00:00N 43°42' W 064°36'123 6.8 250 / 81016.0 5.4 19.015.717.0
2018-Jul-19 06:00N 44°42' W 062°06'5618.8 350 / 61009.5 0.0 15.015.015.0
2018-Jul-19 03:00N 45°06' W 060°54'7318.2 270 / 151009.0 0.1 15.015.015.0
2018-Jul-18 23:00N 45°54' W 059°36'76 4.2 200 / 301008.0 0.1 15.015.014.0
2018-Jul-18 05:00N 46°48' W 060°54'1717.2 190 / 241008.0 5.4 20.018.419.0
2018-Jul-18 04:00N 46°36' W 061°12'44 1.9 180 / 251009.0 5.4 19.017.419.0
2018-Jul-17 05:00N 47°06' W 062°00'6611.0 180 / 61015.0 0.1 15.015.017.0
2018-Jul-16 23:00N 48°12' W 061°54'33315.1 150 / 201012.0 0.0 17.015.316.0
2018-Jul-16 01:00N 47°30' W 070°06'3115.7 280 / 81014.010.8 22.018.921.0
2018-Jul-15 23:00N 47°06' W 070°36'2716.4 190 / 61013.010.8 24.021.022.0
2018-Jul-15 21:21N 46°50' W 071°08'3 8.3
2018-Jul-15 21:00N 46°49' W 071°12'0 0.1
2018-Jul-15 20:24N 46°49' W 071°12'0 0.0
2018-Jul-15 20:00N 46°49' W 071°12'0 0.0
2018-Jul-15 19:27N 46°49' W 071°12'0 0.0
2018-Jul-15 18:57N 46°49' W 071°12'0 0.0
2018-Jul-15 18:24N 46°49' W 071°12'0 0.0
2018-Jul-15 17:54N 46°49' W 071°12'0 0.0
2018-Jul-15 17:27N 46°49' W 071°12'0 0.0
2018-Jul-15 16:57N 46°49' W 071°12'0 0.0
2018-Jul-15 16:15N 46°49' W 071°12'0 0.0
2018-Jul-15 15:51N 46°49' W 071°12'0 0.0
2018-Jul-15 14:12N 46°49' W 071°12'0 0.0
2018-Jul-15 13:57N 46°49' W 071°12'0 0.0
2018-Jul-15 13:21N 46°49' W 071°12'0 0.0
2018-Jul-15 12:21N 46°49' W 071°12'0 0.0
2018-Jul-15 11:51N 46°49' W 071°12'0 0.0
2018-Jul-15 11:30N 46°49' W 071°12'0 0.0
2018-Jul-15 10:54N 46°49' W 071°12'0 0.0
2018-Jul-15 10:15N 46°49' W 071°12'0 0.0
2018-Jul-15 09:48N 46°49' W 071°12'8610.1
2018-Jul-15 01:17N 46°06' W 072°59'310.9
2018-Jul-15 01:00N 46°04' W 073°03'47858.1
2018-Jul-15 01:00N 46°00' W 073°00'713.6 150 / 101013.010.8 24.021.024.0
2018-Jul-15 00:30N 46°03' W 073°08'4 8.3
2018-Jul-15 00:00N 45°59' W 073°11'4 8.8
2018-Jul-14 23:30N 45°55' W 073°13'5 9.1
2018-Jul-14 23:00N 45°51' W 073°16'5 9.2
2018-Jul-14 22:30N 45°48' W 073°20'4 8.9
2018-Jul-14 22:00N 45°44' W 073°25'610.7
2018-Jul-14 21:25N 45°39' W 073°29'2 0.1
2018-Jul-14 09:00N 45°37' W 073°30'5 9.4
2018-Jul-14 08:29N 45°41' W 073°27'5 9.9
2018-Jul-14 08:00N 45°45' W 073°23'5 9.6
2018-Jul-14 07:30N 45°49' W 073°19'510.0
2018-Jul-14 07:00N 45°53' W 073°15'510.3
2018-Jul-14 06:30N 45°58' W 073°12'510.1
2018-Jul-14 05:59N 46°03' W 073°09'510.2
2018-Jul-14 05:29N 46°04' W 073°02'8810.8
2018-Jul-13 21:22N 46°48' W 071°12'1 1.7
2018-Jul-13 21:00N 46°49' W 071°12'  

Dump ship's entire track history